createdAt,value
2019-04-05T00:00:12.400Z,17.07
2019-04-05T00:02:42.054Z,15.63
2019-04-05T00:05:11.807Z,16.50
2019-04-05T00:07:41.167Z,15.90
2019-04-05T00:10:11.271Z,15.70
2019-04-05T00:12:40.646Z,15.70
2019-04-05T00:15:15.536Z,16.05
2019-04-05T00:17:41.411Z,15.32
2019-04-05T00:20:11.167Z,15.53
2019-04-05T00:22:40.468Z,15.58
2019-04-05T00:25:10.141Z,16.48
2019-04-05T00:27:39.486Z,15.63
2019-04-05T00:30:10.526Z,15.32
2019-04-05T00:32:39.835Z,16.15
2019-04-05T00:35:09.242Z,14.90
2019-04-05T00:37:38.543Z,16.12
2019-04-05T00:40:11.526Z,15.72
2019-04-05T00:42:40.900Z,15.72
2019-04-05T00:45:10.712Z,15.30
2019-04-05T00:47:40.015Z,15.35
2019-04-05T00:50:10.503Z,15.18
2019-04-05T00:52:39.810Z,15.15
2019-04-05T00:55:09.904Z,14.55
2019-04-05T00:57:39.325Z,15.98
2019-04-05T01:00:09.835Z,15.58
2019-04-05T01:02:39.173Z,16.45
2019-04-05T01:05:08.621Z,15.13
2019-04-05T01:07:38.283Z,14.90
2019-04-05T01:10:09.894Z,14.90
2019-04-05T01:12:41.648Z,15.08
2019-04-05T01:15:14.348Z,15.38
2019-04-05T01:17:44.086Z,16.50
2019-04-05T01:20:14.708Z,15.48
2019-04-05T01:22:47.084Z,16.23
2019-04-05T01:25:16.451Z,15.88
2019-04-05T01:27:48.321Z,16.23
2019-04-05T01:30:18.363Z,16.07
2019-04-05T01:32:48.508Z,15.88
2019-04-05T01:35:18.013Z,16.42
2019-04-05T01:37:48.420Z,16.02
2019-04-05T01:40:18.432Z,16.32
2019-04-05T01:42:49.112Z,15.58
2019-04-05T01:45:19.115Z,15.50
2019-04-05T01:47:48.716Z,16.50
2019-04-05T01:50:18.394Z,16.10
2019-04-05T01:52:49.007Z,15.40
2019-04-05T01:55:18.310Z,16.60
2019-04-05T01:57:47.933Z,15.70
2019-04-05T02:00:17.671Z,16.17
2019-04-05T02:02:47.351Z,15.95
2019-04-05T02:05:19.009Z,15.43
2019-04-05T02:07:48.382Z,16.00
2019-04-05T02:10:17.897Z,15.35
2019-04-05T02:12:47.240Z,15.28
2019-04-05T02:15:34.991Z,15.32
2019-04-05T02:18:04.399Z,14.87
2019-04-05T02:20:33.795Z,14.55
2019-04-05T02:23:03.296Z,15.20
2019-04-05T02:25:32.635Z,15.75
2019-04-05T02:28:02.007Z,15.50
2019-04-05T02:30:34.209Z,14.38
2019-04-05T02:33:03.860Z,14.75
2019-04-05T02:35:33.168Z,14.80
2019-04-05T02:38:02.747Z,14.90
2019-04-05T02:40:34.228Z,14.63
2019-04-05T02:43:05.450Z,14.68
2019-04-05T02:45:39.538Z,13.75
2019-04-05T02:48:13.121Z,14.50
2019-04-05T02:50:47.371Z,14.58
2019-04-05T02:53:20.119Z,14.43
2019-04-05T02:55:50.792Z,15.03
2019-04-05T02:58:22.153Z,16.57
2019-04-05T03:00:51.898Z,15.40
2019-04-05T03:03:21.394Z,15.03
2019-04-05T03:05:51.192Z,15.80
2019-04-05T03:08:20.606Z,16.48
2019-04-05T03:11:13.867Z,16.17
2019-04-05T03:13:52.498Z,15.75
2019-04-05T03:16:40.395Z,16.12
2019-04-05T03:19:08.349Z,16.37
2019-04-05T03:21:42.672Z,15.45
2019-04-05T03:24:16.738Z,14.78
2019-04-05T03:26:53.301Z,14.33
2019-04-05T03:29:23.609Z,14.58
2019-04-05T03:31:53.928Z,15.00
2019-04-05T03:34:23.934Z,15.05
2019-04-05T03:36:53.942Z,14.45
2019-04-05T03:39:24.438Z,14.73
2019-04-05T03:41:55.517Z,15.40
2019-04-05T03:44:25.223Z,13.58
2019-04-05T03:46:58.567Z,13.90
2019-04-05T03:49:29.420Z,14.55
2019-04-05T03:51:58.793Z,14.13
2019-04-05T03:54:28.422Z,15.68
2019-04-05T03:56:58.916Z,14.58
2019-04-05T03:59:28.379Z,14.55
2019-04-05T04:01:57.830Z,14.95
2019-04-05T04:04:27.553Z,14.93
2019-04-05T04:06:57.333Z,17.12
2019-04-05T04:09:27.424Z,16.48
2019-04-05T04:11:57.383Z,16.07
2019-04-05T04:14:26.764Z,16.07
2019-04-05T04:17:11.540Z,15.43
2019-04-05T04:19:29.231Z,15.25
2019-04-05T04:22:14.260Z,15.13
2019-04-05T04:24:44.048Z,14.73
2019-04-05T04:27:14.239Z,14.45
2019-04-05T04:29:44.349Z,14.15
2019-04-05T04:32:15.211Z,14.78
2019-04-05T04:34:45.116Z,13.93
2019-04-05T04:37:14.926Z,14.35
2019-04-05T04:39:45.249Z,14.73
2019-04-05T04:42:15.784Z,15.05
2019-04-05T04:44:45.223Z,14.23
2019-04-05T04:47:25.694Z,14.43
2019-04-05T04:49:46.282Z,17.48
2019-04-05T04:52:16.892Z,14.28
2019-04-05T04:54:48.889Z,14.55
2019-04-05T04:57:18.262Z,14.75
2019-04-05T04:59:47.640Z,14.47
2019-04-05T05:02:17.139Z,14.43
2019-04-05T05:04:46.776Z,15.35
2019-04-05T05:07:16.148Z,14.87
2019-04-05T05:09:45.571Z,14.60
2019-04-05T05:12:15.015Z,14.90
2019-04-05T05:14:44.308Z,14.85
2019-04-05T05:17:14.377Z,14.18
2019-04-05T05:19:44.019Z,14.43
2019-04-05T05:22:13.492Z,14.13
2019-04-05T05:24:43.087Z,14.60
2019-04-05T05:27:12.422Z,15.15
2019-04-05T05:29:41.860Z,15.25
2019-04-05T05:32:11.662Z,15.83
2019-04-05T05:34:41.020Z,22.25
2019-04-05T05:37:10.790Z,17.05
2019-04-05T05:39:40.225Z,15.05
2019-04-05T05:42:09.620Z,15.58
2019-04-05T05:44:38.988Z,15.55
2019-04-05T05:47:08.590Z,16.67
2019-04-05T05:49:37.883Z,16.00
2019-04-05T05:52:07.747Z,16.32
2019-04-05T05:54:37.086Z,15.05
2019-04-05T05:57:06.651Z,16.30
2019-04-05T05:59:36.262Z,15.23
2019-04-05T06:02:07.283Z,15.48
2019-04-05T06:04:36.707Z,16.00
2019-04-05T06:07:06.386Z,15.80
2019-04-05T06:09:35.728Z,17.00
2019-04-05T06:12:05.101Z,15.30
2019-04-05T06:14:34.403Z,16.45
2019-04-05T06:17:03.842Z,16.27
2019-04-05T06:19:33.133Z,16.23
2019-04-05T06:22:02.831Z,16.57
2019-04-05T06:24:32.173Z,15.95
2019-04-05T06:27:01.555Z,16.93
2019-04-05T06:29:31.150Z,17.15
2019-04-05T06:32:00.504Z,17.92
2019-04-05T06:34:29.805Z,17.73
2019-04-05T06:36:59.104Z,20.05
2019-04-05T06:39:28.754Z,18.32
2019-04-05T06:41:58.046Z,17.73
2019-04-05T06:44:28.145Z,20.08
2019-04-05T06:46:57.886Z,18.50
2019-04-05T06:49:27.187Z,18.95
2019-04-05T06:51:56.775Z,19.42
2019-04-05T06:54:26.382Z,18.80
2019-04-05T06:56:55.688Z,18.42
2019-04-05T06:59:24.994Z,18.67
2019-04-05T07:01:54.344Z,19.92
2019-04-05T07:04:23.646Z,18.92
2019-04-05T07:06:53.213Z,20.17
2019-04-05T07:09:22.548Z,19.45
2019-04-05T07:11:51.892Z,20.57
2019-04-05T07:14:21.186Z,20.88
2019-04-05T07:16:50.543Z,21.90
2019-04-05T07:19:19.843Z,20.20
2019-04-05T07:21:49.404Z,21.52
2019-04-05T07:24:18.738Z,20.45
2019-04-05T07:26:51.049Z,20.57
2019-04-05T07:29:20.683Z,19.70
2019-04-05T07:31:50.311Z,19.30
2019-04-05T07:34:19.610Z,18.62
2019-04-05T07:36:48.911Z,18.77
2019-04-05T07:39:18.328Z,20.23
2019-04-05T07:41:47.567Z,19.20
2019-04-05T07:44:16.876Z,18.57
2019-04-05T07:46:46.681Z,17.98
2019-04-05T07:49:16.430Z,16.55
2019-04-05T07:51:45.738Z,15.35
2019-04-05T07:54:15.421Z,15.63
2019-04-05T07:56:46.230Z,15.20
2019-04-05T07:59:15.795Z,16.05
2019-04-05T08:01:45.139Z,15.35
2019-04-05T08:04:14.443Z,15.90
2019-04-05T08:06:45.655Z,16.25
2019-04-05T08:09:16.508Z,15.50
2019-04-05T08:11:47.902Z,15.45
2019-04-05T08:14:18.386Z,13.78
2019-04-05T08:16:48.197Z,12.55
2019-04-05T08:19:17.493Z,12.07
2019-04-05T08:21:46.796Z,13.88
2019-04-05T08:24:16.192Z,14.63
2019-04-05T08:26:45.737Z,14.43
2019-04-05T08:29:15.212Z,13.72
2019-04-05T08:31:44.852Z,14.68
2019-04-05T08:34:14.166Z,15.03
2019-04-05T08:36:43.465Z,14.95
2019-04-05T08:39:12.803Z,13.38
2019-04-05T08:41:42.371Z,13.75
2019-04-05T08:44:11.742Z,13.85
2019-04-05T08:46:41.089Z,13.40
2019-04-05T08:49:13.319Z,14.87
2019-04-05T08:51:42.617Z,15.53
2019-04-05T08:54:11.963Z,16.40
2019-04-05T08:56:43.929Z,15.53
2019-04-05T08:59:13.227Z,14.78
2019-04-05T09:01:42.583Z,14.80
2019-04-05T09:04:12.203Z,13.98
2019-04-05T09:06:41.507Z,14.68
2019-04-05T09:09:10.849Z,12.90
2019-04-05T09:11:40.225Z,12.93
2019-04-05T09:14:09.525Z,12.18
2019-04-05T09:16:38.886Z,12.93
2019-04-05T09:19:08.539Z,14.07
2019-04-05T09:21:40.513Z,13.72
2019-04-05T09:24:11.936Z,13.38
2019-04-05T09:26:41.537Z,13.88
2019-04-05T09:29:10.834Z,11.70
2019-04-05T09:31:40.173Z,9.75
2019-04-05T09:34:09.746Z,9.90
2019-04-05T09:36:39.044Z,10.45
2019-04-05T09:39:15.041Z,11.30
2019-04-05T09:41:41.588Z,11.75
2019-04-05T09:44:10.886Z,12.30
2019-04-05T09:46:47.126Z,13.08
2019-04-05T09:49:14.185Z,13.90
2019-04-05T09:51:43.490Z,13.85
2019-04-05T09:54:12.850Z,15.58
2019-04-05T09:56:42.458Z,18.65
2019-04-05T09:59:11.771Z,17.75
2019-04-05T10:01:42.812Z,18.48
2019-04-05T10:04:12.504Z,19.87
2019-04-05T10:06:41.814Z,19.70
2019-04-05T10:09:11.168Z,20.32
2019-04-05T10:11:40.472Z,20.45
2019-04-05T10:14:10.010Z,20.43
2019-04-05T10:16:39.359Z,21.97
2019-04-05T10:19:08.664Z,20.75
2019-04-05T10:21:40.939Z,20.80
2019-04-05T10:24:10.318Z,18.27
2019-04-05T10:26:39.618Z,19.00
2019-04-05T10:29:08.928Z,17.17
2019-04-05T10:31:38.301Z,17.52
2019-04-05T10:34:07.596Z,18.23
2019-04-05T10:36:36.896Z,18.62
2019-04-05T10:39:10.070Z,17.62
2019-04-05T10:41:39.845Z,18.25
2019-04-05T10:44:10.792Z,17.00
2019-04-05T10:46:40.148Z,15.30
2019-04-05T10:49:09.453Z,15.28
2019-04-05T10:51:39.036Z,15.10
2019-04-05T10:54:09.658Z,14.93
2019-04-05T10:56:39.097Z,18.50
2019-04-05T10:59:08.787Z,21.15
2019-04-05T11:01:38.404Z,21.00
2019-04-05T11:04:07.727Z,23.70
2019-04-05T11:06:37.029Z,23.25
2019-04-05T11:09:08.547Z,21.02
2019-04-05T11:11:37.850Z,21.07
2019-04-05T11:14:13.605Z,21.93
2019-04-05T11:16:41.371Z,23.73
2019-04-05T11:19:10.681Z,23.32
2019-04-05T11:21:40.156Z,22.17
2019-04-05T11:24:09.775Z,26.15
2019-04-05T11:26:39.384Z,30.35
2019-04-05T11:29:08.689Z,26.65
2019-04-05T11:31:38.288Z,25.12
2019-04-05T11:34:07.593Z,25.62
2019-04-05T11:36:38.124Z,24.35
2019-04-05T11:39:09.415Z,25.02
2019-04-05T11:41:40.334Z,27.48
2019-04-05T11:44:09.655Z,28.62
2019-04-05T11:46:40.263Z,28.95
2019-04-05T11:49:09.570Z,29.18
2019-04-05T11:51:38.883Z,27.62
2019-04-05T11:54:08.515Z,26.60
2019-04-05T11:56:37.776Z,26.17
2019-04-05T11:59:08.734Z,26.30
2019-04-05T12:01:45.410Z,22.02
2019-04-05T12:04:14.688Z,21.97
2019-04-05T12:06:43.996Z,19.25
2019-04-05T12:09:13.357Z,19.65
2019-04-05T12:11:42.672Z,18.90
2019-04-05T12:14:12.257Z,19.05
2019-04-05T12:16:41.614Z,18.70
2019-04-05T12:19:10.928Z,20.08
2019-04-05T12:21:40.251Z,20.48
2019-04-05T12:24:09.614Z,20.50
2019-04-05T12:26:42.748Z,19.15
2019-04-05T12:29:12.413Z,19.85
2019-04-05T12:31:41.785Z,18.55
2019-04-05T12:34:11.101Z,18.32
2019-04-05T12:36:40.672Z,17.87
2019-04-05T12:39:10.278Z,18.32
2019-04-05T12:41:40.996Z,18.67
2019-04-05T12:44:14.182Z,19.45
2019-04-05T12:46:45.834Z,19.98
2019-04-05T12:49:16.082Z,20.97
2019-04-05T12:51:46.093Z,20.32
2019-04-05T12:54:16.067Z,21.52
2019-04-05T12:56:45.817Z,21.27
2019-04-05T12:59:15.139Z,20.88
2019-04-05T13:01:45.652Z,20.05
2019-04-05T13:04:15.878Z,20.27
2019-04-05T13:06:45.184Z,20.20
2019-04-05T13:09:14.816Z,21.15
2019-04-05T13:11:44.121Z,20.27
2019-04-05T13:14:13.430Z,19.98
2019-04-05T13:16:42.809Z,20.72
2019-04-05T13:19:12.119Z,21.33
2019-04-05T13:21:41.566Z,22.40
2019-04-05T13:24:10.928Z,23.35
2019-04-05T13:26:42.150Z,22.00
2019-04-05T13:29:11.265Z,20.80
2019-04-05T13:31:40.934Z,18.70
2019-04-05T13:34:10.560Z,18.20
2019-04-05T13:36:40.566Z,19.95
2019-04-05T13:39:10.578Z,18.45
2019-04-05T13:41:39.880Z,19.02
2019-04-05T13:44:09.184Z,18.90
2019-04-05T13:46:39.290Z,18.90
2019-04-05T13:49:10.573Z,18.55
2019-04-05T13:51:42.120Z,17.55
2019-04-05T13:54:11.594Z,18.37
2019-04-05T13:56:41.530Z,18.92
2019-04-05T13:59:11.211Z,19.35
2019-04-05T14:01:40.851Z,19.55
2019-04-05T14:04:10.437Z,18.32
2019-04-05T14:06:39.749Z,18.20
2019-04-05T14:09:10.470Z,18.02
2019-04-05T14:11:40.447Z,18.82
2019-04-05T14:14:12.180Z,20.23
2019-04-05T14:16:42.929Z,19.05
2019-04-05T14:19:11.935Z,18.25
2019-04-05T14:21:47.318Z,19.37
2019-04-05T14:24:13.035Z,18.82
2019-04-05T14:26:43.743Z,18.52
2019-04-05T14:29:13.221Z,18.90
2019-04-05T14:31:42.891Z,18.62
2019-04-05T14:34:12.188Z,19.52
2019-04-05T14:36:41.499Z,18.55
2019-04-05T14:39:11.793Z,17.87
2019-04-05T14:41:41.172Z,18.48
2019-04-05T14:44:10.479Z,18.57
2019-04-05T14:46:39.838Z,17.42
2019-04-05T14:49:09.511Z,18.32
2019-04-05T14:51:38.821Z,18.07
2019-04-05T14:54:09.955Z,19.32
2019-04-05T14:56:39.223Z,19.07
2019-04-05T14:59:08.529Z,19.70
2019-04-05T15:01:37.885Z,20.37
2019-04-05T15:04:07.459Z,21.17
2019-04-05T15:06:36.773Z,20.45
2019-04-05T15:09:07.564Z,19.25
2019-04-05T15:11:36.896Z,18.35
2019-04-05T15:14:06.276Z,17.60
2019-04-05T15:16:35.624Z,16.87
2019-04-05T15:19:06.021Z,16.35
2019-04-05T15:21:38.838Z,16.17
2019-04-05T15:24:08.781Z,16.23
2019-04-05T15:26:37.613Z,16.48
2019-04-05T15:29:07.248Z,16.77
2019-04-05T15:31:36.860Z,16.57
2019-04-05T15:34:06.239Z,17.20
2019-04-05T15:36:35.560Z,17.73
2019-04-05T15:39:09.234Z,17.80
2019-04-05T15:41:38.620Z,18.37
2019-04-05T15:44:07.950Z,17.73
2019-04-05T15:46:37.540Z,17.65
2019-04-05T15:49:06.922Z,17.67
2019-04-05T15:51:36.219Z,18.05
2019-04-05T15:54:05.649Z,17.35
2019-04-05T15:56:35.016Z,17.25
2019-04-05T15:59:04.841Z,18.52
2019-04-05T16:01:34.958Z,18.37
2019-04-05T16:04:04.523Z,20.80
2019-04-05T16:06:33.820Z,19.40
2019-04-05T16:09:03.173Z,20.45
2019-04-05T16:11:32.472Z,20.32
2019-04-05T16:14:01.783Z,19.67
2019-04-05T16:16:31.160Z,19.80
2019-04-05T16:19:00.465Z,21.17
2019-04-05T16:21:32.446Z,20.57
2019-04-05T16:24:01.806Z,20.23
2019-04-05T16:26:31.114Z,20.57
2019-04-05T16:29:00.467Z,20.27
2019-04-05T16:31:29.836Z,20.45
2019-04-05T16:33:59.148Z,20.08
2019-04-05T16:36:30.877Z,20.08
2019-04-05T16:38:59.526Z,19.82
2019-04-05T16:41:28.827Z,20.80
2019-04-05T16:43:58.130Z,19.95
2019-04-05T16:46:27.497Z,18.35
2019-04-05T16:48:57.443Z,16.82
2019-04-05T16:51:27.017Z,15.95
2019-04-05T16:53:59.768Z,16.17
2019-04-05T16:56:29.820Z,15.68
2019-04-05T16:58:59.199Z,16.60
2019-04-05T17:01:28.545Z,16.50
2019-04-05T17:03:58.131Z,15.70
2019-04-05T17:06:27.436Z,17.07
2019-04-05T17:08:56.784Z,17.77
2019-04-05T17:11:26.357Z,17.30
2019-04-05T17:13:59.396Z,16.87
2019-04-05T17:16:27.304Z,16.77
2019-04-05T17:18:56.929Z,17.05
2019-04-05T17:21:26.287Z,18.12
2019-04-05T17:23:55.907Z,18.77
2019-04-05T17:26:25.229Z,18.00
2019-04-05T17:28:54.596Z,17.80
2019-04-05T17:31:23.884Z,18.12
2019-04-05T17:33:53.531Z,17.40
2019-04-05T17:36:25.578Z,16.70
2019-04-05T17:38:55.164Z,16.80
2019-04-05T17:41:24.799Z,18.70
2019-04-05T17:43:54.101Z,17.87
2019-04-05T17:46:23.443Z,18.20
2019-04-05T17:48:52.787Z,17.02
2019-04-05T17:51:22.173Z,15.83
2019-04-05T17:53:51.540Z,15.95
2019-04-05T17:56:21.616Z,14.90
2019-04-05T17:58:51.355Z,15.78
2019-04-05T18:01:21.097Z,14.70
2019-04-05T18:03:50.774Z,13.68
2019-04-05T18:06:20.079Z,15.38
2019-04-05T18:08:49.433Z,15.10
2019-04-05T18:11:19.062Z,14.73
2019-04-05T18:13:48.362Z,14.35
2019-04-05T18:16:18.099Z,15.05
2019-04-05T18:18:47.676Z,15.53
2019-04-05T18:21:17.167Z,16.50
2019-04-05T18:23:46.787Z,17.20
2019-04-05T18:26:16.398Z,15.58
2019-04-05T18:28:45.707Z,15.38
2019-04-05T18:31:15.060Z,14.87
2019-04-05T18:33:44.358Z,14.60
2019-04-05T18:36:13.676Z,15.70
2019-04-05T18:38:43.404Z,16.45
2019-04-05T18:41:13.020Z,15.30
2019-04-05T18:43:42.440Z,15.63
2019-04-05T18:46:11.808Z,15.15
2019-04-05T18:48:41.113Z,15.58
2019-04-05T18:51:10.419Z,16.73
2019-04-05T18:53:40.027Z,16.50
2019-04-05T18:56:09.337Z,17.32
2019-04-05T18:58:38.626Z,17.02
2019-04-05T19:01:08.243Z,17.37
2019-04-05T19:03:37.537Z,16.80
2019-04-05T19:06:06.858Z,17.37
2019-04-05T19:08:39.830Z,21.97
2019-04-05T19:11:07.436Z,18.92
2019-04-05T19:13:37.010Z,19.70
2019-04-05T19:16:06.702Z,19.25
2019-04-05T19:18:36.107Z,19.73
2019-04-05T19:21:05.754Z,20.08
2019-04-05T19:23:35.417Z,20.35
2019-04-05T19:26:04.899Z,22.30
2019-04-05T19:28:34.211Z,20.70
2019-04-05T19:48:41.046Z,18.45
2019-04-05T19:51:10.337Z,18.42
2019-04-05T19:53:39.675Z,19.23
2019-04-05T19:56:09.248Z,19.57
2019-04-05T19:58:38.546Z,20.95
2019-04-05T20:01:07.901Z,19.00
2019-04-05T20:03:37.538Z,18.52
2019-04-05T20:06:07.998Z,19.35
2019-04-05T20:08:37.279Z,19.07
2019-04-05T20:11:06.831Z,18.07
2019-04-05T20:13:36.107Z,19.07
2019-04-05T20:16:05.450Z,17.65
2019-04-05T20:18:34.764Z,18.73
2019-04-05T20:21:04.375Z,18.55
2019-04-05T20:23:33.721Z,19.27
2019-04-05T20:26:03.026Z,17.77
2019-04-05T20:28:32.682Z,18.57
2019-04-05T20:31:02.041Z,18.48
2019-04-05T20:33:31.364Z,17.75
2019-04-05T20:36:00.651Z,18.65
2019-04-05T20:38:30.002Z,17.98
2019-04-05T20:40:59.311Z,18.48
2019-04-05T20:43:28.614Z,18.55
2019-04-05T20:45:58.289Z,18.05
2019-04-05T20:48:27.617Z,17.98
2019-04-05T20:50:59.593Z,17.25
2019-04-05T20:53:28.971Z,18.48
2019-04-05T20:55:58.269Z,17.23
2019-04-05T20:58:27.566Z,15.98
2019-04-05T21:00:56.921Z,17.30
2019-04-05T21:03:26.251Z,16.75
2019-04-05T21:05:55.533Z,16.70
2019-04-05T21:08:24.888Z,18.30
2019-04-05T21:10:54.206Z,17.80
2019-04-05T21:13:23.502Z,17.00
2019-04-05T21:15:52.849Z,16.75
2019-04-05T21:18:22.155Z,16.97
2019-04-05T21:20:51.456Z,16.70
2019-04-05T21:23:20.804Z,17.27
2019-04-05T21:25:50.375Z,17.57
2019-04-05T21:28:19.674Z,17.05
2019-04-05T21:30:49.286Z,16.20
2019-04-05T21:33:18.581Z,17.12
2019-04-05T21:35:48.457Z,16.35
2019-04-05T21:38:17.800Z,17.57
2019-04-05T21:40:52.745Z,16.50
2019-04-05T21:43:22.055Z,18.17
2019-04-05T21:45:51.738Z,17.40
2019-04-05T21:48:21.042Z,17.35
2019-04-05T21:50:50.338Z,17.00
2019-04-05T21:53:19.780Z,18.48
2019-04-05T21:55:49.143Z,18.02
2019-04-05T21:58:18.749Z,18.07
2019-04-05T22:00:53.728Z,17.70
2019-04-05T22:03:23.391Z,17.75
2019-04-05T22:05:52.994Z,17.35
2019-04-05T22:08:22.597Z,18.32
2019-04-05T22:10:51.951Z,18.17
2019-04-05T22:13:21.260Z,18.07
2019-04-05T22:15:50.844Z,19.55
2019-04-05T22:18:20.137Z,18.02
2019-04-05T22:20:49.444Z,18.10
2019-04-05T22:23:18.802Z,17.85
2019-04-05T22:25:48.094Z,17.85
2019-04-05T22:28:17.401Z,19.55
2019-04-05T22:30:47.021Z,18.75
2019-04-05T22:33:16.324Z,18.32
2019-04-05T22:35:45.691Z,18.70
2019-04-05T22:38:15.044Z,18.82
2019-04-05T22:40:44.341Z,19.32
2019-04-05T22:43:13.636Z,18.87
2019-04-05T22:45:43.243Z,17.98
2019-04-05T22:48:12.528Z,18.95
2019-04-05T22:50:41.819Z,19.25
2019-04-05T22:53:11.436Z,19.50
2019-04-05T22:55:40.737Z,18.50
2019-04-05T22:58:10.064Z,19.90
2019-04-05T23:00:39.419Z,18.62
2019-04-05T23:03:09.055Z,19.05
2019-04-05T23:05:38.339Z,19.15
2019-04-05T23:08:07.748Z,19.80
2019-04-05T23:10:37.354Z,19.12
2019-04-05T23:13:06.702Z,19.70
2019-04-05T23:15:36.019Z,20.27
2019-04-05T23:18:05.387Z,19.20
2019-04-05T23:20:34.680Z,19.80
2019-04-05T23:23:04.373Z,20.15
2019-04-05T23:25:33.671Z,19.82
2019-04-05T23:28:02.967Z,19.62
2019-04-05T23:30:33.485Z,19.92
2019-04-05T23:33:02.787Z,20.43
2019-04-05T23:35:32.402Z,21.00
2019-04-05T23:38:02.010Z,20.17
2019-04-05T23:40:31.308Z,20.30
2019-04-05T23:43:00.634Z,20.02
2019-04-05T23:45:29.952Z,20.08
2019-04-05T23:47:59.537Z,20.88
2019-04-05T23:50:28.837Z,21.12
2019-04-05T23:52:58.197Z,19.85
2019-04-05T23:55:33.207Z,21.87
2019-04-05T23:57:59.710Z,21.62
